Terminal Aerodrome Forecast
Issued by NWS

Current Version | Previous Version | Graphics & Text | Print | Product List | Glossary On
Versions: 1 2 3 4 5 6 7 8 9 10 11 12 13 14 15 16 17 18 19 20 21
000
FTUS41 KILN 232326
TAFLUK
TAF
KLUK 232326Z 2400/2424 00000KT P6SM SKC
     FM240600 00000KT 2SM BR SKC
      TEMPO 2407/2411 1/4SM FG VV002
     FM241200 20004KT P6SM SKC
     FM241600 20005KT P6SM FEW040 SCT250=

USA.gov is the U.S. government's official web portal to all federal, state and local government web resources and services.